Time;durP1;ratioP1;P1;durP2;ratioP2;P2;SDS_P1;SDS_P2;PMS_P1;PMS_P2;Temp;Humidity;BMP_temperature;BMP_pressure;BME280_temperature;BME280_humidity;BME280_pressure;Samples;Min_cycle;Max_cycle;Signal;HPM_P1;HPM_P2
2021/05/28 00:01:16;;;;;;;8.02;6.40;;;12.00;76.80;;;;;;4987273;28;20414;-68
2021/05/28 00:03:42;;;;;;;8.52;5.78;;;12.00;76.90;;;;;;4998450;28;20026;-68
2021/05/28 00:06:08;;;;;;;13.57;7.75;;;12.00;76.50;;;;;;4992930;28;20068;-67
2021/05/28 00:08:33;;;;;;;11.27;7.35;;;12.00;77.10;;;;;;4993208;28;20022;-67
2021/05/28 00:11:01;;;;;;;7.80;5.50;;;12.00;77.10;;;;;;4992415;28;20019;-68
2021/05/28 00:13:27;;;;;;;7.93;6.20;;;12.00;76.90;;;;;;4992484;28;20018;-67
2021/05/28 00:15:53;;;;;;;8.02;6.03;;;11.90;77.50;;;;;;4993037;28;20029;-68
2021/05/28 00:18:18;;;;;;;7.63;6.03;;;11.90;77.10;;;;;;4992336;28;20029;-67
2021/05/28 00:20:44;;;;;;;11.10;6.90;;;11.90;77.20;;;;;;4993210;28;20699;-67
2021/05/28 00:23:09;;;;;;;6.70;5.40;;;11.90;77.40;;;;;;4992357;28;20022;-67
2021/05/28 00:25:35;;;;;;;8.88;5.68;;;11.90;77.00;;;;;;4992954;28;20453;-68
2021/05/28 00:28:00;;;;;;;7.35;5.35;;;12.00;77.10;;;;;;4980193;28;20062;-67
2021/05/28 00:30:26;;;;;;;12.05;6.63;;;11.90;77.10;;;;;;4987621;28;20015;-69
2021/05/28 00:32:52;;;;;;;8.13;6.32;;;11.70;77.80;;;;;;4976640;28;20379;-68
2021/05/28 00:35:17;;;;;;;8.85;6.03;;;11.60;77.90;;;;;;4986585;28;20081;-69
2021/05/28 00:37:46;;;;;;;9.05;5.82;;;11.60;78.20;;;;;;4982519;28;20030;-68
2021/05/28 00:40:13;;;;;;;6.90;5.43;;;11.60;78.10;;;;;;4979167;28;20512;-68
2021/05/28 00:42:39;;;;;;;8.85;6.18;;;11.70;77.90;;;;;;4989223;28;20380;-68
2021/05/28 00:45:06;;;;;;;17.98;6.32;;;11.70;77.90;;;;;;4977616;28;20014;-68
2021/05/28 00:47:31;;;;;;;13.82;8.20;;;11.60;78.30;;;;;;4983773;28;20038;-69
2021/05/28 00:49:57;;;;;;;11.32;7.60;;;11.70;78.60;;;;;;4983473;28;20574;-68
2021/05/28 00:52:23;;;;;;;7.72;6.47;;;11.80;78.60;;;;;;4977421;28;20105;-68
2021/05/28 00:54:49;;;;;;;10.45;6.38;;;11.70;78.60;;;;;;4989116;28;20033;-68
2021/05/28 00:57:14;;;;;;;9.15;6.50;;;11.70;78.50;;;;;;4978120;28;20029;-69
2021/05/28 00:59:41;;;;;;;6.82;6.13;;;11.60;78.50;;;;;;4983085;28;20019;-70
2021/05/28 01:02:06;;;;;;;8.32;6.05;;;11.70;78.40;;;;;;4984379;28;20026;-68
2021/05/28 01:04:33;;;;;;;8.18;6.20;;;11.70;78.10;;;;;;4976141;28;20033;-69
2021/05/28 01:06:59;;;;;;;8.77;6.50;;;11.70;77.90;;;;;;4987838;28;20109;-68
2021/05/28 01:09:24;;;;;;;13.65;7.97;;;11.80;78.00;;;;;;4979147;28;20150;-70
2021/05/28 01:11:50;;;;;;;13.45;8.43;;;11.70;78.10;;;;;;4980419;28;20082;-69
2021/05/28 01:14:17;;;;;;;7.53;6.35;;;11.60;78.60;;;;;;4986668;28;20500;-68
2021/05/28 01:16:42;;;;;;;8.45;6.57;;;11.80;78.20;;;;;;4973990;28;20031;-68
2021/05/28 01:19:08;;;;;;;12.32;7.35;;;11.80;77.80;;;;;;4987106;28;20146;-68
2021/05/28 01:21:34;;;;;;;10.73;6.95;;;11.80;77.80;;;;;;4981191;28;20006;-68
2021/05/28 01:24:00;;;;;;;16.48;7.72;;;11.80;78.20;;;;;;4980004;28;20529;-66
2021/05/28 01:26:25;;;;;;;8.25;6.50;;;11.80;78.30;;;;;;4987072;28;20101;-68
2021/05/28 01:28:51;;;;;;;11.10;7.05;;;11.80;77.90;;;;;;4991298;28;20022;-68
2021/05/28 01:31:17;;;;;;;7.22;5.70;;;11.90;77.80;;;;;;4991971;28;20108;-68
2021/05/28 01:33:44;;;;;;;9.48;6.93;;;11.80;77.80;;;;;;4992047;28;20034;-68
2021/05/28 01:36:10;;;;;;;8.05;6.30;;;11.80;78.30;;;;;;4991112;28;20019;-68
2021/05/28 01:38:38;;;;;;;14.85;8.70;;;11.80;78.00;;;;;;4991598;28;20084;-70
2021/05/28 01:41:05;;;;;;;14.00;6.78;;;11.80;78.40;;;;;;4992050;28;20022;-68
2021/05/28 01:43:31;;;;;;;10.77;7.38;;;11.70;78.40;;;;;;4991680;28;20097;-67
2021/05/28 01:45:59;;;;;;;9.65;6.35;;;11.70;78.40;;;;;;4992646;28;20084;-68
2021/05/28 01:48:26;;;;;;;11.98;7.38;;;11.70;78.30;;;;;;4991430;28;20053;-68
2021/05/28 01:50:52;;;;;;;6.72;5.88;;;11.80;78.00;;;;;;4991636;28;20125;-69
2021/05/28 01:53:26;;;;;;;9.15;6.07;;;11.80;77.80;;;;;;4991771;28;20094;-67
2021/05/28 01:55:53;;;;;;;7.50;6.10;;;11.80;78.00;;;;;;4991568;28;20026;-68
2021/05/28 01:58:21;;;;;;;8.93;6.72;;;11.80;78.20;;;;;;4989463;28;20038;-68
2021/05/28 02:00:47;;;;;;;9.80;7.40;;;11.70;78.90;;;;;;4990097;28;20026;-69
2021/05/28 02:03:14;;;;;;;8.95;6.72;;;11.70;79.10;;;;;;4977974;28;20078;-68
2021/05/28 02:05:40;;;;;;;8.73;6.20;;;11.70;79.10;;;;;;4991618;28;20053;-68
2021/05/28 02:08:06;;;;;;;9.38;7.65;;;11.70;78.70;;;;;;4990857;28;20042;-68
2021/05/28 02:10:33;;;;;;;8.88;6.22;;;11.70;78.90;;;;;;4991382;28;20089;-68
2021/05/28 02:12:58;;;;;;;8.80;6.18;;;11.80;78.70;;;;;;4990461;28;20029;-68
2021/05/28 02:15:25;;;;;;;7.90;6.28;;;11.80;78.60;;;;;;4991685;28;20097;-66
2021/05/28 02:17:52;;;;;;;9.07;6.63;;;11.70;78.80;;;;;;4989985;28;20109;-69
2021/05/28 02:20:18;;;;;;;9.57;6.63;;;11.70;78.80;;;;;;4991372;28;20026;-68
2021/05/28 02:22:44;;;;;;;13.45;7.68;;;11.70;78.90;;;;;;4990191;28;20534;-67
2021/05/28 02:25:10;;;;;;;11.40;7.95;;;11.70;78.90;;;;;;4990296;28;20109;-68
2021/05/28 02:27:36;;;;;;;8.80;6.63;;;11.70;78.80;;;;;;4990563;28;20384;-68
2021/05/28 02:30:06;;;;;;;11.18;7.55;;;11.70;78.80;;;;;;4979021;28;20430;-67
2021/05/28 02:32:31;;;;;;;11.45;7.55;;;11.70;79.40;;;;;;4988024;28;20035;-67
2021/05/28 02:35:00;;;;;;;9.57;7.32;;;11.70;80.30;;;;;;4974167;28;20026;-67
2021/05/28 02:37:25;;;;;;;10.52;7.78;;;11.60;80.60;;;;;;4983309;28;20019;-67
2021/05/28 02:39:51;;;;;;;8.32;7.00;;;11.50;80.70;;;;;;4982797;28;20026;-67
2021/05/28 02:42:17;;;;;;;13.25;7.47;;;11.60;80.80;;;;;;4976893;28;20106;-68
2021/05/28 02:44:42;;;;;;;8.68;7.45;;;11.60;81.00;;;;;;4987931;28;20412;-68
2021/05/28 02:47:08;;;;;;;11.60;8.27;;;11.50;80.90;;;;;;4978659;28;20084;-67
2021/05/28 02:49:35;;;;;;;8.63;6.88;;;11.60;81.60;;;;;;4985026;28;20018;-68
2021/05/28 02:52:02;;;;;;;11.27;7.97;;;11.50;82.20;;;;;;4987527;28;20110;-68
2021/05/28 02:54:28;;;;;;;12.07;8.45;;;11.50;82.10;;;;;;4978913;28;20037;-67
2021/05/28 02:56:54;;;;;;;11.23;7.82;;;11.50;82.70;;;;;;4990394;28;20102;-67
2021/05/28 02:59:22;;;;;;;12.02;8.02;;;11.40;82.60;;;;;;4981888;28;20010;-67
2021/05/28 03:01:48;;;;;;;13.60;8.25;;;11.30;82.60;;;;;;4984175;28;20496;-67
2021/05/28 03:04:14;;;;;;;12.55;7.63;;;11.30;82.60;;;;;;4988931;28;20030;-68
2021/05/28 03:06:40;;;;;;;10.63;7.68;;;11.30;82.20;;;;;;4977775;28;20019;-66
2021/05/28 03:09:06;;;;;;;9.35;8.02;;;11.40;82.40;;;;;;4989690;28;20022;-68
2021/05/28 03:11:31;;;;;;;10.00;7.68;;;11.50;81.50;;;;;;4981946;28;20041;-69
2021/05/28 03:13:57;;;;;;;13.70;8.80;;;11.50;81.20;;;;;;4982791;28;20022;-69
2021/05/28 03:16:22;;;;;;;162.23;116.22;;;11.40;81.40;;;;;;4988017;28;20108;-68
2021/05/28 03:18:52;;;;;;;35.53;19.00;;;11.50;81.40;;;;;;4992950;28;20014;-68
2021/05/28 03:23:57;;;;;;;13.63;7.78;;;11.50;81.20;;;;;;4994183;28;20065;-70
2021/05/28 03:26:25;;;;;;;14.40;8.07;;;11.50;81.10;;;;;;4993271;28;20468;-67
2021/05/28 03:28:51;;;;;;;12.38;8.43;;;11.50;81.50;;;;;;4991353;28;20019;-67
2021/05/28 03:31:17;;;;;;;112.82;84.80;;;11.60;81.00;;;;;;4979726;28;20026;-67
2021/05/28 03:33:43;;;;;;;101.00;65.10;;;11.50;81.10;;;;;;4984294;28;20039;-67
2021/05/28 03:36:09;;;;;;;10.60;8.52;;;11.50;81.30;;;;;;4987019;28;20026;-67
2021/05/28 03:38:35;;;;;;;15.10;8.32;;;11.60;80.70;;;;;;4976323;28;20031;-67
2021/05/28 03:41:01;;;;;;;14.98;10.48;;;11.60;80.90;;;;;;4989856;28;20089;-67
2021/05/28 03:43:26;;;;;;;11.30;8.75;;;11.60;81.40;;;;;;4981789;28;20026;-68
2021/05/28 03:45:52;;;;;;;13.38;9.55;;;11.70;80.60;;;;;;4982681;28;20530;-67
2021/05/28 03:48:18;;;;;;;15.10;9.27;;;11.70;80.90;;;;;;4987872;28;20022;-68
2021/05/28 03:50:44;;;;;;;12.50;8.68;;;11.60;80.90;;;;;;4977671;28;20019;-68
2021/05/28 03:53:09;;;;;;;14.80;9.27;;;11.60;81.00;;;;;;4988343;28;20512;-68
2021/05/28 03:55:35;;;;;;;11.13;9.10;;;11.70;80.70;;;;;;4981335;28;20025;-68
2021/05/28 03:58:01;;;;;;;13.85;9.07;;;11.70;80.90;;;;;;4979313;28;20073;-69
2021/05/28 04:00:26;;;;;;;15.07;9.05;;;11.70;80.80;;;;;;4989585;28;20018;-68
2021/05/28 04:02:52;;;;;;;12.45;8.73;;;11.70;81.00;;;;;;4977202;28;20616;-68
2021/05/28 04:05:18;;;;;;;13.43;9.43;;;11.60;80.90;;;;;;4986876;28;20101;-68
2021/05/28 04:07:46;;;;;;;11.88;9.05;;;11.60;81.10;;;;;;4983206;28;20044;-69
2021/05/28 04:10:13;;;;;;;14.10;9.30;;;11.60;81.00;;;;;;4978432;28;20477;-69
2021/05/28 04:12:41;;;;;;;17.05;11.00;;;11.60;81.70;;;;;;4988614;28;20138;-69
2021/05/28 04:15:08;;;;;;;17.17;12.25;;;11.60;83.70;;;;;;4977252;28;20029;-69
2021/05/28 04:17:33;;;;;;;20.55;14.20;;;11.50;86.40;;;;;;4982965;28;20015;-69
2021/05/28 04:19:59;;;;;;;22.27;15.57;;;11.30;87.60;;;;;;4985016;28;20025;-69
2021/05/28 04:22:25;;;;;;;21.90;15.38;;;11.20;88.70;;;;;;4976445;28;20019;-69
2021/05/28 04:24:51;;;;;;;16.70;14.85;;;11.20;89.00;;;;;;4989705;28;20031;-69
2021/05/28 04:27:17;;;;;;;20.63;15.20;;;11.10;89.00;;;;;;4977905;28;20042;-69
2021/05/28 04:29:42;;;;;;;23.00;14.40;;;11.10;89.50;;;;;;4982168;28;20493;-69
2021/05/28 04:32:08;;;;;;;23.65;15.80;;;11.20;89.10;;;;;;4986409;28;20036;-68
2021/05/28 04:34:34;;;;;;;22.42;15.73;;;11.20;89.30;;;;;;4991490;28;20022;-68
2021/05/28 04:37:00;;;;;;;17.55;13.95;;;11.20;89.10;;;;;;4991805;28;20469;-68
2021/05/28 04:39:26;;;;;;;16.77;14.02;;;11.10;88.90;;;;;;4992631;28;20102;-68
2021/05/28 04:41:54;;;;;;;19.38;14.07;;;11.20;89.30;;;;;;4981763;28;20393;-67
2021/05/28 04:44:22;;;;;;;19.50;16.08;;;11.20;88.80;;;;;;4986477;28;20033;-68
2021/05/28 04:46:48;;;;;;;15.68;13.85;;;11.20;88.80;;;;;;4974949;28;20058;-67
2021/05/28 04:49:13;;;;;;;19.92;14.02;;;11.30;88.50;;;;;;4986739;28;20472;-68
2021/05/28 04:51:39;;;;;;;17.00;13.00;;;11.30;87.80;;;;;;4979941;28;20026;-67
2021/05/28 04:54:05;;;;;;;18.15;14.18;;;11.40;88.60;;;;;;4979561;28;20022;-68
2021/05/28 04:56:31;;;;;;;14.63;12.32;;;11.50;87.70;;;;;;4986935;28;20408;-67
2021/05/28 04:58:57;;;;;;;15.20;12.68;;;11.60;87.70;;;;;;4976529;28;20029;-68
2021/05/28 05:01:25;;;;;;;18.00;12.45;;;11.60;87.40;;;;;;4985229;28;20018;-68
2021/05/28 05:03:51;;;;;;;14.82;12.98;;;11.60;86.90;;;;;;4983379;28;20022;-68
2021/05/28 05:06:17;;;;;;;16.25;13.38;;;11.60;87.40;;;;;;4989821;28;20031;-69
2021/05/28 05:08:42;;;;;;;16.98;13.65;;;11.60;87.10;;;;;;4991451;28;20384;-69
2021/05/28 05:11:08;;;;;;;17.60;15.10;;;11.50;88.40;;;;;;4991992;28;20010;-69
2021/05/28 05:13:34;;;;;;;24.55;17.02;;;11.50;89.30;;;;;;4992482;28;20018;-68
2021/05/28 05:16:00;;;;;;;20.40;17.05;;;11.50;89.70;;;;;;4991178;28;20022;-68
2021/05/28 05:18:25;;;;;;;18.65;16.23;;;11.40;90.20;;;;;;4990770;28;20452;-68
2021/05/28 05:20:51;;;;;;;22.70;17.90;;;11.40;89.90;;;;;;4992060;28;20097;-68
2021/05/28 05:23:18;;;;;;;22.60;17.02;;;11.30;90.30;;;;;;4991988;28;20045;-68
2021/05/28 05:25:44;;;;;;;21.02;17.77;;;11.30;90.50;;;;;;4991481;28;20015;-69
2021/05/28 05:28:09;;;;;;;20.90;16.90;;;11.40;90.90;;;;;;4977409;28;20041;-69
2021/05/28 05:30:35;;;;;;;17.70;14.13;;;11.50;90.70;;;;;;4988208;28;20085;-68
2021/05/28 05:33:00;;;;;;;18.55;14.40;;;11.60;90.20;;;;;;4976435;28;20018;-67
2021/05/28 05:35:26;;;;;;;22.20;16.67;;;11.50;89.50;;;;;;4991671;28;20082;-68
2021/05/28 05:37:51;;;;;;;14.75;12.63;;;11.50;90.10;;;;;;4990764;28;20026;-69
2021/05/28 05:40:17;;;;;;;18.13;12.82;;;11.50;89.30;;;;;;4991374;28;20034;-73
2021/05/28 05:42:43;;;;;;;15.82;14.13;;;11.40;89.30;;;;;;4990385;28;20381;-69
2021/05/28 05:45:10;;;;;;;19.30;14.02;;;11.40;90.00;;;;;;4991506;28;20014;-68
2021/05/28 05:47:36;;;;;;;19.30;13.95;;;11.40;90.10;;;;;;4990871;28;20018;-68
2021/05/28 05:50:02;;;;;;;18.42;14.07;;;11.40;90.30;;;;;;4991127;28;20423;-69
2021/05/28 05:52:29;;;;;;;25.38;15.60;;;11.30;90.30;;;;;;4990392;28;20026;-68
2021/05/28 05:54:55;;;;;;;19.33;15.13;;;11.30;90.90;;;;;;4991544;28;20019;-68
2021/05/28 05:57:20;;;;;;;22.52;15.40;;;11.20;91.10;;;;;;4988629;28;20113;-68
2021/05/28 05:59:46;;;;;;;13.27;11.73;;;11.20;91.60;;;;;;4988276;28;20022;-68
2021/05/28 06:02:11;;;;;;;13.55;8.43;;;11.10;91.80;;;;;;4991320;28;20440;-68
2021/05/28 06:04:37;;;;;;;9.45;7.38;;;11.00;91.20;;;;;;4991441;28;20049;-67
2021/05/28 06:07:03;;;;;;;5.20;4.68;;;11.00;91.10;;;;;;4990483;28;20007;-68
2021/05/28 06:09:28;;;;;;;7.80;5.38;;;11.10;89.80;;;;;;4989991;28;20023;-67
2021/05/28 06:11:55;;;;;;;7.30;5.47;;;11.00;90.00;;;;;;4983630;28;20385;-67
2021/05/28 06:14:21;;;;;;;8.85;5.78;;;11.00;90.20;;;;;;4986237;28;20025;-70
2021/05/28 06:16:46;;;;;;;12.32;9.30;;;11.20;90.80;;;;;;4990470;28;20109;-67
2021/05/28 06:19:12;;;;;;;8.23;6.32;;;11.10;90.10;;;;;;4989992;28;20062;-67
2021/05/28 06:21:38;;;;;;;6.90;6.03;;;11.20;90.90;;;;;;4992220;28;20014;-68
2021/05/28 06:24:04;;;;;;;11.38;6.82;;;11.30;90.40;;;;;;4995318;28;20486;-69
2021/05/28 06:26:29;;;;;;;7.53;6.72;;;11.60;91.00;;;;;;4994099;28;20101;-68
2021/05/28 06:28:55;;;;;;;9.85;6.28;;;11.70;90.80;;;;;;4990984;28;20134;-69
2021/05/28 06:31:21;;;;;;;6.78;5.15;;;11.70;90.30;;;;;;4980804;28;20018;-66
2021/05/28 06:33:49;;;;;;;7.28;5.05;;;11.70;89.10;;;;;;4984773;28;20030;-68
2021/05/28 06:36:14;;;;;;;8.75;5.47;;;11.70;89.60;;;;;;4987656;28;20026;-68
2021/05/28 06:38:40;;;;;;;7.95;5.85;;;11.70;89.20;;;;;;4978796;28;20354;-71
2021/05/28 06:41:05;;;;;;;23.80;15.25;;;11.80;89.40;;;;;;4990447;28;20014;-73
2021/05/28 06:43:50;;;;;;;14.13;9.90;;;11.80;88.60;;;;;;4983137;28;20033;-76
2021/05/28 06:46:16;;;;;;;16.27;9.80;;;11.80;89.10;;;;;;4992624;28;20034;-70
2021/05/28 06:48:43;;;;;;;16.58;8.35;;;11.80;89.30;;;;;;4992989;28;20068;-69
2021/05/28 06:51:09;;;;;;;16.83;10.07;;;12.00;89.40;;;;;;4993283;28;20024;-69
2021/05/28 06:53:35;;;;;;;59.15;26.58;;;12.10;88.30;;;;;;4994484;28;20019;-70
2021/05/28 06:56:01;;;;;;;44.75;24.05;;;12.30;87.60;;;;;;4993774;28;20027;-69
2021/05/28 06:58:27;;;;;;;89.82;44.92;;;12.50;87.30;;;;;;4978663;28;20085;-69
2021/05/28 07:00:53;;;;;;;15.48;9.90;;;12.50;87.30;;;;;;4991216;28;20019;-69
2021/05/28 07:03:18;;;;;;;10.65;7.63;;;12.60;86.40;;;;;;4981490;28;20101;-69
2021/05/28 07:05:44;;;;;;;31.88;17.92;;;12.80;86.40;;;;;;4983070;28;20453;-68
2021/05/28 07:08:10;;;;;;;14.73;7.80;;;12.90;87.00;;;;;;4987168;28;20022;-68
2021/05/28 07:10:35;;;;;;;11.55;5.80;;;13.10;85.90;;;;;;4977986;28;20162;-69
2021/05/28 07:13:01;;;;;;;19.33;8.77;;;13.40;84.50;;;;;;4989957;28;20081;-70
2021/05/28 07:15:26;;;;;;;35.80;17.17;;;13.50;83.30;;;;;;4981951;28;20069;-69
2021/05/28 07:17:52;;;;;;;19.83;12.07;;;13.50;84.00;;;;;;4982435;28;20026;-68
2021/05/28 07:20:18;;;;;;;11.57;7.57;;;13.50;84.60;;;;;;4988786;28;20027;-69
2021/05/28 07:22:44;;;;;;;12.55;8.50;;;13.50;83.60;;;;;;4977825;28;20038;-69
2021/05/28 07:25:10;;;;;;;9.98;6.57;;;13.60;83.10;;;;;;4988678;28;20516;-68
2021/05/28 07:27:36;;;;;;;7.28;4.85;;;13.80;82.50;;;;;;4982715;28;20376;-67
2021/05/28 07:30:08;;;;;;;7.70;5.20;;;13.90;81.70;;;;;;4981957;28;20109;-69
2021/05/28 07:32:34;;;;;;;77.38;45.75;;;13.80;80.70;;;;;;4988673;28;20113;-69
2021/05/28 07:35:00;;;;;;;141.57;67.63;;;13.80;81.50;;;;;;4978253;28;20022;-68
2021/05/28 07:37:26;;;;;;;30.75;18.23;;;14.00;81.40;;;;;;4985726;28;20436;-70
2021/05/28 07:39:51;;;;;;;9.95;6.88;;;14.20;80.90;;;;;;4984996;28;20026;-68
2021/05/28 07:42:17;;;;;;;15.18;9.02;;;14.70;78.70;;;;;;4977980;28;20054;-68
2021/05/28 07:44:43;;;;;;;14.57;9.45;;;15.30;77.20;;;;;;4990687;28;20073;-69
2021/05/28 07:47:10;;;;;;;7.20;4.90;;;16.10;75.50;;;;;;5036927;23;20042;-69
2021/05/28 07:49:37;;;;;;;7.57;4.75;;;16.80;72.30;;;;;;5023035;28;20018;-69
2021/05/28 07:52:03;;;;;;;23.67;8.90;;;17.10;69.20;;;;;;5024630;28;20475;-68
2021/05/28 07:54:28;;;;;;;19.95;11.23;;;17.40;70.90;;;;;;5015470;28;20189;-67
2021/05/28 07:56:54;;;;;;;14.88;9.15;;;17.70;69.30;;;;;;5028684;28;20101;-67
2021/05/28 07:59:19;;;;;;;27.13;17.17;;;17.50;67.30;;;;;;5019695;28;20014;-68
2021/05/28 08:01:45;;;;;;;13.07;8.30;;;17.50;65.70;;;;;;5022722;28;20018;-68
2021/05/28 08:04:11;;;;;;;22.83;14.82;;;16.60;66.80;;;;;;5026568;28;20033;-68
2021/05/28 08:06:37;;;;;;;28.90;18.30;;;16.00;68.00;;;;;;5015259;28;20183;-67
2021/05/28 08:09:03;;;;;;;12.48;7.47;;;15.50;69.90;;;;;;5028589;28;20017;-65
2021/05/28 08:11:28;;;;;;;9.43;7.30;;;15.00;71.10;;;;;;5020558;28;20045;-67
2021/05/28 08:13:54;;;;;;;7.78;4.93;;;15.00;72.20;;;;;;5024748;28;20053;-67
2021/05/28 08:16:22;;;;;;;31.65;16.42;;;15.50;71.20;;;;;;5017870;28;20037;-68
2021/05/28 08:18:48;;;;;;;9.90;5.50;;;15.70;68.40;;;;;;5029995;28;20025;-67
2021/05/28 08:21:13;;;;;;;34.55;19.77;;;15.60;68.70;;;;;;5018044;28;20028;-67
2021/05/28 08:23:40;;;;;;;19.23;10.90;;;15.40;69.90;;;;;;5022065;28;20101;-67
2021/05/28 08:26:06;;;;;;;12.88;7.85;;;15.20;70.30;;;;;;5024862;28;20087;-66
2021/05/28 08:28:34;;;;;;;13.27;7.65;;;14.80;73.60;;;;;;5016093;28;20026;-67
2021/05/28 08:31:00;;;;;;;19.02;12.25;;;15.10;71.50;;;;;;5028518;28;20040;-68
2021/05/28 08:33:25;;;;;;;30.73;22.10;;;16.10;71.50;;;;;;5020202;28;20022;-68
2021/05/28 08:35:53;;;;;;;12.27;7.88;;;17.60;65.20;;;;;;5021430;28;20028;-67
2021/05/28 08:38:19;;;;;;;16.52;10.82;;;18.40;60.90;;;;;;5026789;28;20025;-67
2021/05/28 08:40:45;;;;;;;30.63;19.25;;;18.50;58.30;;;;;;5014900;28;20029;-68
2021/05/28 08:43:10;;;;;;;45.67;29.55;;;17.80;59.80;;;;;;5025129;28;20084;-67
2021/05/28 08:45:41;;;;;;;34.80;21.38;;;17.00;63.10;;;;;;5020953;28;20049;-67
2021/05/28 08:48:09;;;;;;;24.27;15.43;;;16.90;62.40;;;;;;5018151;28;20378;-67
2021/05/28 08:50:35;;;;;;;22.63;15.05;;;17.30;61.60;;;;;;5028339;28;20061;-67
2021/05/28 08:53:08;;;;;;;16.27;10.05;;;18.80;56.70;;;;;;5015288;28;20045;-66
2021/05/28 08:55:35;;;;;;;4.22;3.17;;;19.80;53.50;;;;;;5023210;28;20056;-66
2021/05/28 08:58:08;;;;;;;8.88;6.50;;;20.70;50.80;;;;;;5023781;28;20086;-66
2021/05/28 09:00:34;;;;;;;16.50;10.57;;;22.00;46.70;;;;;;5015425;28;20115;-66
2021/05/28 09:03:20;;;;;;;19.10;13.43;;;23.00;44.40;;;;;;5027687;28;20025;-66
2021/05/28 09:05:50;;;;;;;29.10;19.88;;;23.40;41.20;;;;;;5022279;28;20013;-66
2021/05/28 09:08:29;;;;;;;10.80;7.95;;;23.30;42.60;;;;;;5017056;28;20041;-68
2021/05/28 09:11:15;;;;;;;7.80;6.00;;;23.10;41.10;;;;;;5028277;28;20638;-68
2021/05/28 09:13:49;;;;;;;7.55;4.97;;;22.60;42.30;;;;;;5021738;28;20522;-68
2021/05/28 09:16:23;;;;;;;21.55;16.20;;;21.70;43.30;;;;;;5016320;28;20030;-68
2021/05/28 09:18:52;;;;;;;17.75;12.02;;;21.00;46.70;;;;;;5027939;28;20017;-65
2021/05/28 09:21:24;;;;;;;14.50;10.48;;;20.30;48.50;;;;;;5033347;28;20112;-68
2021/05/28 09:23:51;;;;;;;256.30;153.20;;;20.00;50.10;;;;;;5020426;28;20073;-69
2021/05/28 09:26:17;;;;;;;117.47;63.58;;;19.50;50.80;;;;;;5025148;28;20020;-67
2021/05/28 09:28:47;;;;;;;21.75;10.75;;;19.50;50.50;;;;;;5029337;28;20029;-67
2021/05/28 09:31:24;;;;;;;7.20;5.03;;;19.70;49.80;;;;;;5017766;28;20021;-67
2021/05/28 09:33:52;;;;;;;53.70;31.15;;;20.10;47.30;;;;;;5018857;28;20057;-67
2021/05/28 09:36:24;;;;;;;38.25;24.75;;;20.50;47.00;;;;;;5024783;28;20100;-68
2021/05/28 09:39:12;;;;;;;6.10;3.50;;;21.20;47.80;;;;;;5013341;28;20018;-67
2021/05/28 09:41:44;;;;;;;28.15;17.33;;;21.80;45.40;;;;;;5022165;28;20020;-68
2021/05/28 09:44:24;;;;;;;28.45;17.83;;;22.50;42.80;;;;;;5025236;28;20080;-66
2021/05/28 09:47:13;;;;;;;24.17;16.65;;;23.00;41.90;;;;;;5013804;28;20065;-65
2021/05/28 09:49:47;;;;;;;13.45;8.43;;;22.70;40.90;;;;;;5021545;28;20431;-65
2021/05/28 09:52:24;;;;;;;13.07;8.32;;;22.90;41.60;;;;;;5025295;28;20028;-67
2021/05/28 09:54:59;;;;;;;18.90;12.52;;;22.90;41.10;;;;;;5015114;28;20022;-68
2021/05/28 09:57:34;;;;;;;6.90;4.40;;;21.80;41.40;;;;;;5025401;28;20013;-68
2021/05/28 10:00:04;;;;;;;43.83;26.40;;;21.00;45.00;;;;;;5027625;28;20025;-69
2021/05/28 10:02:42;;;;;;;28.77;15.55;;;20.90;44.60;;;;;;5017030;28;20387;-67
2021/05/28 10:05:08;;;;;;;313.92;162.38;;;21.20;43.30;;;;;;5020458;28;20104;-68
2021/05/28 10:07:35;;;;;;;34.17;20.52;;;20.80;44.70;;;;;;5024283;28;20448;-68
2021/05/28 10:10:01;;;;;;;7.25;4.72;;;20.70;43.70;;;;;;5026414;28;20375;-68
2021/05/28 10:12:26;;;;;;;26.25;15.73;;;21.10;43.80;;;;;;5018980;28;20078;-68
2021/05/28 10:14:53;;;;;;;12.70;8.30;;;22.00;41.60;;;;;;5031550;28;20744;-67
2021/05/28 10:17:20;;;;;;;9.90;6.65;;;22.50;39.80;;;;;;5020802;28;20020;-68
2021/05/28 10:19:47;;;;;;;50.88;31.65;;;22.50;39.90;;;;;;5023372;28;20076;-69
2021/05/28 10:22:13;;;;;;;32.53;21.15;;;22.10;41.10;;;;;;5028958;28;20044;-69
2021/05/28 10:24:39;;;;;;;64.80;38.70;;;22.50;41.30;;;;;;5019201;28;20468;-69
2021/05/28 10:27:06;;;;;;;14.13;9.75;;;22.30;41.00;;;;;;5029307;28;20033;-65
2021/05/28 10:29:32;;;;;;;11.00;5.78;;;21.80;39.40;;;;;;5023265;28;20017;-64
2021/05/28 10:32:00;;;;;;;24.83;15.48;;;21.50;39.30;;;;;;5022267;28;20468;-64
2021/05/28 10:34:28;;;;;;;5.22;2.95;;;20.90;41.90;;;;;;5030027;28;20049;-64
2021/05/28 10:36:56;;;;;;;20.63;12.30;;;20.80;41.70;;;;;;5016031;28;20017;-68
2021/05/28 10:39:23;;;;;;;12.55;7.53;;;20.00;44.60;;;;;;5027545;28;20010;-67
2021/05/28 10:41:53;;;;;;;15.82;8.65;;;19.50;46.30;;;;;;5025327;28;20013;-67
2021/05/28 10:44:25;;;;;;;6.97;4.40;;;18.50;48.90;;;;;;5019255;28;20077;-65
2021/05/28 10:46:59;;;;;;;5.68;2.33;;;17.40;52.10;;;;;;5044472;28;20065;-65
2021/05/28 10:49:36;;;;;;;6.90;4.38;;;16.60;54.10;;;;;;5021954;28;20014;-64
2021/05/28 10:52:04;;;;;;;16.63;6.60;;;16.00;57.50;;;;;;5021544;28;20017;-65
2021/05/28 10:54:31;;;;;;;5.88;3.67;;;15.60;59.50;;;;;;5045803;28;20040;-65
2021/05/28 10:57:21;;;;;;;9.63;4.65;;;15.30;60.00;;;;;;5020550;28;20416;-67
2021/05/28 10:59:49;;;;;;;1.80;1.02;;;15.10;60.10;;;;;;5031117;28;20545;-67
2021/05/28 11:02:16;;;;;;;4.95;2.58;;;15.30;59.90;;;;;;5021462;28;20464;-67
2021/05/28 11:04:42;;;;;;;4.80;2.95;;;15.40;60.30;;;;;;5028169;28;20009;-70
2021/05/28 11:07:10;;;;;;;12.10;5.82;;;15.50;59.90;;;;;;5028925;28;20071;-69
2021/05/28 11:09:37;;;;;;;7.25;4.10;;;15.60;57.50;;;;;;5021440;28;20059;-66
2021/05/28 11:12:25;;;;;;;2.42;0.77;;;15.50;57.90;;;;;;5022773;28;20164;-67
2021/05/28 11:15:10;;;;;;;5.40;2.70;;;15.50;58.30;;;;;;5026315;28;20048;-67
2021/05/28 11:17:58;;;;;;;4.68;2.25;;;15.50;58.50;;;;;;5025483;28;20495;-68
2021/05/28 11:20:33;;;;;;;1.17;1.08;;;15.70;59.00;;;;;;5026306;28;20029;-66
2021/05/28 11:23:00;;;;;;;6.47;3.13;;;16.10;56.70;;;;;;5031238;28;20022;-67
2021/05/28 11:25:31;;;;;;;3.70;2.58;;;16.30;55.50;;;;;;5033192;28;20043;-67
2021/05/28 11:28:06;;;;;;;2.78;2.20;;;16.40;54.90;;;;;;5025055;28;20033;-65
2021/05/28 11:30:40;;;;;;;3.95;2.20;;;16.50;53.20;;;;;;5027191;28;20034;-67
2021/05/28 11:33:06;;;;;;;3.40;1.30;;;16.70;53.60;;;;;;5027217;28;20025;-67
2021/05/28 11:35:42;;;;;;;6.03;2.78;;;16.70;53.00;;;;;;5024739;28;20033;-70
2021/05/28 11:38:12;;;;;;;1.08;0.80;;;17.00;52.20;;;;;;5030009;28;20071;-68
2021/05/28 11:40:39;;;;;;;1.90;1.23;;;17.20;52.20;;;;;;5019272;28;20498;-68
2021/05/28 11:43:13;;;;;;;4.18;2.08;;;17.20;52.60;;;;;;5032436;28;20083;-68
2021/05/28 11:45:42;;;;;;;3.67;2.25;;;17.30;52.80;;;;;;5018407;28;20454;-68
2021/05/28 11:48:27;;;;;;;2.10;1.42;;;17.60;52.40;;;;;;5023891;28;20033;-67
2021/05/28 11:51:01;;;;;;;5.68;2.60;;;17.80;51.30;;;;;;5028332;28;20096;-68
2021/05/28 11:53:34;;;;;;;2.38;1.02;;;17.90;49.90;;;;;;5016036;28;20041;-64
2021/05/28 11:56:03;;;;;;;5.88;3.17;;;17.90;50.30;;;;;;5032265;28;20104;-67
2021/05/28 11:58:34;;;;;;;2.70;2.20;;;18.10;50.10;;;;;;5020561;28;20352;-67
2021/05/28 12:01:04;;;;;;;4.80;2.83;;;18.30;49.20;;;;;;5029109;28;20052;-68
2021/05/28 12:03:33;;;;;;;15.57;10.52;;;18.30;50.00;;;;;;5015439;28;20596;-70
2021/05/28 12:06:06;;;;;;;141.38;67.10;;;18.40;48.40;;;;;;5020478;28;20480;-68
2021/05/28 12:08:33;;;;;;;68.22;32.42;;;18.00;49.60;;;;;;5032771;28;20102;-68
2021/05/28 12:11:03;;;;;;;101.10;45.40;;;17.90;50.70;;;;;;5016671;28;20499;-68
2021/05/28 12:13:35;;;;;;;59.05;26.42;;;18.00;51.70;;;;;;5015090;28;20087;-68
2021/05/28 12:16:11;;;;;;;28.30;13.95;;;17.90;53.00;;;;;;5024018;28;20479;-67
2021/05/28 12:18:38;;;;;;;4.53;3.10;;;17.90;51.90;;;;;;5024427;28;20025;-68
2021/05/28 12:21:07;;;;;;;2.03;1.58;;;18.00;51.10;;;;;;5017202;28;20076;-68
2021/05/28 12:23:37;;;;;;;11.10;4.57;;;18.30;51.20;;;;;;5026464;28;20025;-68
2021/05/28 12:26:08;;;;;;;11.38;4.97;;;18.60;49.90;;;;;;5020228;28;20013;-66
2021/05/28 12:28:38;;;;;;;16.60;9.00;;;18.60;50.20;;;;;;5024676;28;20085;-68
2021/05/28 12:31:18;;;;;;;6.40;4.15;;;18.50;50.80;;;;;;5031646;28;20033;-68
2021/05/28 12:33:50;;;;;;;7.47;2.73;;;18.50;50.90;;;;;;5018407;28;20086;-68
2021/05/28 12:36:16;;;;;;;9.65;5.93;;;18.50;50.80;;;;;;5019819;28;20030;-67
2021/05/28 12:38:47;;;;;;;2.38;1.80;;;18.70;51.10;;;;;;5037505;28;20120;-68
2021/05/28 12:41:22;;;;;;;7.90;4.65;;;19.00;49.50;;;;;;5031924;28;20030;-69